This is the latest recevied weather packets stored in our database for station/object N4QEP-13. If no packets are shown the sender has not sent any weather packets the latest 1 day(s).
| Time | Temp. | Humidity | Pressure | Rain* | Wind** | Luminosity | Snow |
|---|---|---|---|---|---|---|---|
| 1777995050 | 24.44° C | 51% | 1016.5 hPa | 0 mm | 0.89 m/s, 249° | - | - |
| 1777995049 | 24.44° C | 51% | 1016.5 hPa | 0 mm | 0.89 m/s, 283° | - | - |
| 1777994143 | 24.44° C | 51% | 1016.3 hPa | 0 mm | 0 m/s | - | - |
| 1777993251 | 23.33° C | 49% | 1016.4 hPa | 0 mm | 0.89 m/s, 186° | - | - |
| 1777992337 | 22.22° C | 52% | 1016.6 hPa | 0 mm | 0 m/s | - | - |
| 1777991435 | 21.67° C | 55% | 1016.5 hPa | 0 mm | 0 m/s | - | - |
| 1777990525 | 20.56° C | 56% | 1016.4 hPa | 0 mm | 0.45 m/s, 39° | - | - |
| 1777989622 | 20° C | 61% | 1016.5 hPa | 0 mm | 0 m/s | - | - |
| 1777988722 | 18.33° C | 63% | 1016.5 hPa | 0 mm | 0 m/s | - | - |
| 1777987813 | 17.22° C | 64% | 1016.5 hPa | 0 mm | 0 m/s | - | - |
| 1777986908 | 16.67° C | 64% | 1016.2 hPa | 0 mm | 0 m/s | - | - |
| 1777986008 | 15.56° C | 65% | 1016.1 hPa | 0 mm | 0 m/s | - | - |
| 1777985161 | 15° C | 66% | 1016 hPa | 0 mm | 0 m/s | - | - |
| 1777984259 | 13.33° C | 69% | 1016 hPa | 0 mm | 0 m/s | - | - |
| 1777983354 | 12.22° C | 69% | 1015.9 hPa | 0 mm | 0 m/s | - | - |
| 1777982453 | 12.22° C | 70% | 1015.9 hPa | 0 mm | 0.45 m/s, 37° | - | - |
| 1777981556 | 11.67° C | 73% | 1015.7 hPa | 0 mm | 0.45 m/s, 16° | - | - |
| 1777980654 | 11.11° C | 76% | 1015.7 hPa | 0 mm | 0 m/s | - | - |
| 1777979747 | 11.11° C | 77% | 1015.6 hPa | 0 mm | 0 m/s | - | - |
| 1777978847 | 11.11° C | 77% | 1015.5 hPa | 0 mm | 0.45 m/s, 2° | - | - |
| 1777977945 | 11.11° C | 77% | 1015.3 hPa | 0 mm | 0 m/s | - | - |
| 1777977045 | 11.11° C | 77% | 1015.3 hPa | 0 mm | 0 m/s | - | - |
| 1777976129 | 11.11° C | 77% | 1015.2 hPa | 0 mm | 0 m/s | - | - |
| 1777975235 | 11.11° C | 77% | 1015.2 hPa | 0 mm | 0 m/s | - | - |
| 1777974310 | 11.11° C | 77% | 1015.2 hPa | 0 mm | 0 m/s | - | - |
* Rain latest hour (hover to see other rain measurements)
** Current wind speed in m/s (hover to see current wind gust speed)